createdAt,value
2023-08-12T00:10:17.263Z,5.50
2023-08-12T00:20:40.654Z,5.70
2023-08-12T00:31:02.229Z,6.47
2023-08-12T00:41:25.088Z,5.80
2023-08-12T00:51:47.625Z,5.88
2023-08-12T01:02:10.735Z,6.25
2023-08-12T01:12:39.179Z,5.95
2023-08-12T01:23:12.028Z,6.03
2023-08-12T01:33:38.362Z,6.03
2023-08-12T01:44:01.523Z,6.50
2023-08-12T01:54:24.544Z,7.43
2023-08-12T02:04:48.275Z,6.53
2023-08-12T02:15:10.218Z,6.80
2023-08-12T02:25:33.636Z,6.75
2023-08-12T02:35:56.735Z,6.45
2023-08-12T02:46:21.698Z,6.40
2023-08-12T02:56:43.576Z,6.78
2023-08-12T03:07:06.601Z,6.90
2023-08-12T03:17:28.703Z,6.85
2023-08-12T03:27:52.476Z,7.53
2023-08-12T03:38:15.197Z,6.80
2023-08-12T03:48:38.661Z,7.05
2023-08-12T03:59:00.690Z,7.18
2023-08-12T04:09:23.825Z,6.72
2023-08-12T04:19:45.566Z,6.43
2023-08-12T04:30:11.019Z,6.10
2023-08-12T04:40:34.229Z,6.28
2023-08-12T04:51:01.313Z,6.32
2023-08-12T05:01:23.535Z,6.40
2023-08-12T05:11:48.222Z,6.40
2023-08-12T05:22:10.182Z,6.30
2023-08-12T05:32:34.503Z,6.22
2023-08-12T05:42:56.342Z,5.93
2023-08-12T05:53:19.138Z,5.38
2023-08-12T06:03:40.843Z,5.80
2023-08-12T06:14:03.678Z,6.07
2023-08-12T06:24:25.309Z,5.40
2023-08-12T06:34:47.931Z,5.80
2023-08-12T06:45:11.109Z,5.87
2023-08-12T06:55:34.077Z,5.80
2023-08-12T07:05:55.659Z,5.90
2023-08-12T07:16:18.622Z,6.15
2023-08-12T07:26:41.204Z,6.23
2023-08-12T07:37:05.154Z,6.20
2023-08-12T07:47:27.737Z,6.32
2023-08-12T07:57:50.517Z,5.80
2023-08-12T08:08:12.065Z,5.82
2023-08-12T08:18:35.464Z,6.07
2023-08-12T08:29:00.524Z,5.93
2023-08-12T08:39:23.568Z,6.05
2023-08-12T08:49:45.251Z,6.22
2023-08-12T09:10:37.141Z,5.90
2023-08-12T09:21:00.501Z,6.68
2023-08-12T09:31:27.720Z,5.90
2023-08-12T09:41:51.831Z,6.47
2023-08-12T09:52:14.398Z,7.28
2023-08-12T10:02:38.051Z,7.18
2023-08-12T10:12:59.999Z,6.63
2023-08-12T10:33:44.786Z,6.93
2023-08-12T10:44:08.964Z,7.47
2023-08-12T10:54:31.535Z,6.75
2023-08-12T11:04:59.619Z,6.82
2023-08-12T11:15:31.038Z,6.15
2023-08-12T11:25:55.466Z,5.87
2023-08-12T11:36:17.284Z,6.72
2023-08-12T11:46:41.904Z,5.78
2023-08-12T11:57:03.790Z,5.68
2023-08-12T12:07:33.775Z,5.70
2023-08-12T12:17:55.701Z,5.97
2023-08-12T12:28:19.905Z,6.33
2023-08-12T12:38:43.669Z,6.55
2023-08-12T12:49:08.916Z,7.20
2023-08-12T12:59:30.972Z,7.03
2023-08-12T13:09:54.866Z,6.30
2023-08-12T13:20:19.008Z,6.10
2023-08-12T13:30:42.136Z,5.60
2023-08-12T13:41:03.592Z,5.82
2023-08-12T13:51:26.805Z,5.20
2023-08-12T14:01:48.726Z,5.47
2023-08-12T14:12:12.488Z,5.20
2023-08-12T14:22:34.385Z,4.97
2023-08-12T14:32:57.572Z,5.55
2023-08-12T14:43:19.158Z,5.18
2023-08-12T14:53:41.881Z,5.22
2023-08-12T15:04:03.621Z,5.15
2023-08-12T15:14:29.109Z,5.20
2023-08-12T15:24:53.999Z,5.82
2023-08-12T15:35:18.371Z,5.22
2023-08-12T15:45:42.972Z,5.38
2023-08-12T15:56:07.916Z,5.00
2023-08-12T16:06:31.774Z,5.18
2023-08-12T16:16:56.237Z,4.85
2023-08-12T16:27:18.356Z,4.35
2023-08-12T16:37:41.227Z,4.63
2023-08-12T16:48:05.395Z,5.00
2023-08-12T16:58:28.344Z,5.32
2023-08-12T17:08:50.170Z,5.45
2023-08-12T17:19:13.650Z,5.43
2023-08-12T17:29:35.632Z,6.25
2023-08-12T17:40:01.009Z,6.43
2023-08-12T17:50:22.766Z,7.80
2023-08-12T18:00:45.654Z,5.95
2023-08-12T18:11:07.213Z,6.35
2023-08-12T18:21:30.050Z,17.42
2023-08-12T18:31:51.842Z,6.15
2023-08-12T18:42:15.106Z,7.15
2023-08-12T18:52:36.734Z,6.93
2023-08-12T19:02:59.474Z,8.65
2023-08-12T19:13:21.208Z,8.05
2023-08-12T19:23:43.790Z,7.93
2023-08-12T19:34:06.425Z,7.97
2023-08-12T19:44:29.881Z,7.45
2023-08-12T19:54:51.463Z,6.82
2023-08-12T20:05:16.350Z,7.70
2023-08-12T20:15:38.161Z,8.20
2023-08-12T20:26:00.935Z,8.27
2023-08-12T20:36:22.837Z,8.10
2023-08-12T20:46:46.055Z,7.65
2023-08-12T20:57:07.888Z,9.20
2023-08-12T21:07:30.780Z,10.43
2023-08-12T21:17:52.658Z,10.73
2023-08-12T21:28:15.828Z,10.63
2023-08-12T21:38:42.152Z,10.35
2023-08-12T21:49:07.090Z,9.73
2023-08-12T21:59:28.676Z,10.13
2023-08-12T22:09:52.403Z,9.65
2023-08-12T22:20:14.864Z,9.90
2023-08-12T22:30:38.089Z,10.20
2023-08-12T22:40:59.904Z,10.02
2023-08-12T22:51:23.171Z,9.02
2023-08-12T23:01:44.727Z,9.27
2023-08-12T23:12:08.109Z,8.93
2023-08-12T23:22:33.157Z,7.13
2023-08-12T23:33:02.183Z,6.70
2023-08-12T23:54:07.783Z,5.70
